createdAt,value
2023-01-10T00:01:44.758Z,6.22
2023-01-10T00:04:11.921Z,6.22
2023-01-10T00:06:39.197Z,6.29
2023-01-10T00:09:10.605Z,6.42
2023-01-10T00:11:59.012Z,6.41
2023-01-10T00:14:29.330Z,6.33
2023-01-10T00:16:57.438Z,6.23
2023-01-10T00:19:24.779Z,6.40
2023-01-10T00:21:51.901Z,6.22
2023-01-10T00:24:23.116Z,6.47
2023-01-10T00:26:52.141Z,6.30
2023-01-10T00:29:27.936Z,6.36
2023-01-10T00:31:55.747Z,6.47
2023-01-10T00:34:23.338Z,6.53
2023-01-10T00:36:50.446Z,6.53
2023-01-10T00:39:20.467Z,6.53
2023-01-10T00:42:06.455Z,6.50
2023-01-10T00:44:33.608Z,6.69
2023-01-10T00:47:00.875Z,6.57
2023-01-10T00:49:27.929Z,6.53
2023-01-10T00:51:58.295Z,6.57
2023-01-10T00:54:26.161Z,6.53
2023-01-10T00:56:53.286Z,6.29
2023-01-10T00:59:20.584Z,6.28
2023-01-10T01:01:47.813Z,6.26
2023-01-10T01:04:15.005Z,6.15
2023-01-10T01:06:44.831Z,6.08
2023-01-10T01:09:11.897Z,6.26
2023-01-10T01:11:41.049Z,5.91
2023-01-10T01:14:08.288Z,5.92
2023-01-10T01:16:35.432Z,6.06
2023-01-10T01:19:02.609Z,5.97
2023-01-10T01:21:29.777Z,6.23
2023-01-10T01:23:57.153Z,6.40
2023-01-10T01:26:25.245Z,6.18
2023-01-10T01:28:52.488Z,6.30
2023-01-10T01:31:20.992Z,6.63
2023-01-10T01:33:51.740Z,6.80
2023-01-10T01:36:18.928Z,6.82
2023-01-10T01:38:46.010Z,7.01
2023-01-10T01:41:31.988Z,6.87
2023-01-10T01:44:00.223Z,6.80
2023-01-10T01:46:28.267Z,6.73
2023-01-10T01:48:55.589Z,6.50
2023-01-10T01:51:28.671Z,6.39
2023-01-10T01:54:09.222Z,6.37
2023-01-10T01:56:46.376Z,6.21
2023-01-10T01:59:17.539Z,6.04
2023-01-10T02:01:50.929Z,6.00
2023-01-10T02:04:27.810Z,6.08
2023-01-10T02:06:59.468Z,6.17
2023-01-10T02:09:45.443Z,6.23
2023-01-10T02:12:16.928Z,6.61
2023-01-10T02:14:47.218Z,6.55
2023-01-10T02:17:14.393Z,6.65
2023-01-10T02:19:57.214Z,6.64
2023-01-10T02:22:51.961Z,6.15
2023-01-10T02:26:06.296Z,6.11
2023-01-10T02:29:24.872Z,6.05
2023-01-10T02:32:35.478Z,6.17
2023-01-10T02:35:55.172Z,5.84
2023-01-10T02:38:45.759Z,5.80
2023-01-10T02:41:53.546Z,5.88
2023-01-10T02:44:34.792Z,6.12
2023-01-10T02:47:05.179Z,5.81
2023-01-10T02:49:45.990Z,5.47
2023-01-10T02:52:21.571Z,5.66
2023-01-10T02:54:52.036Z,5.32
2023-01-10T02:58:15.336Z,5.59
2023-01-10T03:00:46.185Z,5.58
2023-01-10T03:03:35.216Z,5.62
2023-01-10T03:06:34.964Z,5.71
2023-01-10T03:09:28.495Z,5.74
2023-01-10T03:12:12.810Z,5.64
2023-01-10T03:14:45.328Z,5.54
2023-01-10T03:17:13.941Z,5.57
2023-01-10T03:19:50.315Z,5.91
2023-01-10T03:22:18.563Z,5.93
2023-01-10T03:24:51.121Z,6.05
2023-01-10T03:28:04.739Z,6.24
2023-01-10T03:30:52.499Z,6.39
2023-01-10T03:33:27.748Z,6.08
2023-01-10T03:36:31.026Z,6.21
2023-01-10T03:39:28.247Z,6.36
2023-01-10T03:42:08.743Z,6.28
2023-01-10T03:45:04.838Z,5.83
2023-01-10T03:47:46.546Z,5.97
2023-01-10T03:50:25.035Z,5.97
2023-01-10T03:52:54.909Z,6.21
2023-01-10T03:55:26.928Z,5.61
2023-01-10T03:57:54.236Z,5.90
2023-01-10T04:00:21.781Z,6.01
2023-01-10T04:02:48.814Z,5.91
2023-01-10T04:05:16.101Z,5.69
2023-01-10T04:07:45.811Z,5.58
2023-01-10T04:10:16.117Z,5.31
2023-01-10T04:12:43.491Z,5.64
2023-01-10T04:15:10.980Z,5.79
2023-01-10T04:17:38.076Z,5.65
2023-01-10T04:20:06.072Z,5.77
2023-01-10T04:22:35.409Z,5.88
2023-01-10T04:25:02.569Z,5.68
2023-01-10T04:27:29.661Z,5.78
2023-01-10T04:29:56.818Z,5.72
2023-01-10T04:32:23.878Z,5.39
2023-01-10T04:34:54.008Z,5.85
2023-01-10T04:37:21.337Z,5.88
2023-01-10T04:39:48.417Z,5.87
2023-01-10T04:42:21.046Z,5.74
2023-01-10T04:44:50.344Z,5.44
2023-01-10T04:47:17.609Z,5.71
2023-01-10T04:49:46.159Z,5.26
2023-01-10T04:52:13.299Z,5.32
2023-01-10T04:54:40.363Z,4.65
2023-01-10T04:57:12.740Z,4.29
2023-01-10T04:59:39.854Z,4.55
2023-01-10T05:02:07.054Z,4.66
2023-01-10T05:04:34.189Z,4.46
2023-01-10T05:07:01.289Z,4.57
2023-01-10T05:09:28.427Z,4.74
2023-01-10T05:11:55.928Z,4.51
2023-01-10T05:14:23.253Z,4.44
2023-01-10T05:16:52.837Z,4.32
2023-01-10T05:19:19.967Z,4.66
2023-01-10T05:21:47.040Z,4.64
2023-01-10T05:24:14.307Z,4.43
2023-01-10T05:26:41.446Z,4.45
2023-01-10T05:29:14.583Z,4.33
2023-01-10T05:31:44.610Z,4.21
2023-01-10T05:34:13.294Z,4.62
2023-01-10T05:36:40.592Z,4.38
2023-01-10T05:39:10.427Z,4.54
2023-01-10T05:41:37.564Z,4.68
2023-01-10T05:44:04.749Z,4.86
2023-01-10T05:46:31.891Z,4.81
2023-01-10T05:48:59.133Z,5.13
2023-01-10T05:51:26.630Z,4.91
2023-01-10T05:54:12.459Z,5.08
2023-01-10T05:56:57.772Z,4.92
2023-01-10T05:59:43.309Z,5.16
2023-01-10T06:02:28.814Z,5.12
2023-01-10T06:05:14.682Z,5.07
2023-01-10T06:08:00.167Z,4.96
2023-01-10T06:10:45.803Z,5.02
2023-01-10T06:13:32.211Z,5.18
2023-01-10T06:16:18.101Z,5.18
2023-01-10T06:19:04.227Z,5.35
2023-01-10T06:21:50.080Z,5.47
2023-01-10T06:24:36.357Z,5.28
2023-01-10T06:27:22.397Z,5.30
2023-01-10T06:30:10.151Z,5.58
2023-01-10T06:33:08.689Z,5.64
2023-01-10T06:35:54.474Z,5.70
2023-01-10T06:38:40.188Z,5.34
2023-01-10T06:41:25.980Z,5.44
2023-01-10T06:44:11.457Z,5.36
2023-01-10T06:46:57.249Z,5.39
2023-01-10T06:49:42.815Z,5.32
2023-01-10T06:52:28.324Z,5.29
2023-01-10T06:55:14.092Z,5.38
2023-01-10T06:58:02.721Z,5.27
2023-01-10T07:00:48.554Z,5.67
2023-01-10T07:03:34.330Z,5.60
2023-01-10T07:06:20.571Z,5.33
2023-01-10T07:09:07.739Z,5.45
2023-01-10T07:11:52.995Z,5.36
2023-01-10T07:14:38.523Z,5.49
2023-01-10T07:17:23.867Z,5.60
2023-01-10T07:20:10.685Z,5.67
2023-01-10T07:23:00.671Z,5.55
2023-01-10T07:25:46.245Z,5.66
2023-01-10T07:28:34.346Z,5.66
2023-01-10T07:31:22.869Z,5.60
2023-01-10T07:34:08.845Z,5.48
2023-01-10T07:36:54.183Z,5.55
2023-01-10T07:39:40.607Z,5.57
2023-01-10T07:42:26.324Z,5.58
2023-01-10T07:45:11.864Z,5.71
2023-01-10T07:48:03.241Z,5.44
2023-01-10T07:50:48.943Z,5.75
2023-01-10T07:53:47.324Z,5.63
2023-01-10T07:56:32.863Z,5.44
2023-01-10T07:59:18.411Z,5.23
2023-01-10T08:02:04.132Z,5.46
2023-01-10T08:04:49.662Z,5.76
2023-01-10T08:07:35.322Z,5.79
2023-01-10T08:10:21.078Z,5.97
2023-01-10T08:13:17.736Z,5.97
2023-01-10T08:16:07.359Z,5.89
2023-01-10T08:18:53.063Z,5.35
2023-01-10T08:21:38.459Z,5.46
2023-01-10T08:24:23.962Z,5.95
2023-01-10T08:27:09.358Z,6.02
2023-01-10T08:29:54.768Z,6.14
2023-01-10T08:32:40.638Z,6.34
2023-01-10T08:35:27.273Z,6.55
2023-01-10T08:38:13.238Z,6.51
2023-01-10T08:40:58.833Z,6.26
2023-01-10T08:43:44.422Z,6.15
2023-01-10T08:46:30.042Z,6.47
2023-01-10T08:49:16.017Z,6.49
2023-01-10T08:52:02.650Z,6.50
2023-01-10T08:54:48.162Z,6.77
2023-01-10T08:57:33.598Z,6.65
2023-01-10T09:00:19.695Z,6.82
2023-01-10T09:03:07.712Z,6.52
2023-01-10T09:05:53.642Z,6.72
2023-01-10T09:08:39.259Z,6.84
2023-01-10T09:11:24.826Z,6.75
2023-01-10T09:14:10.238Z,6.77
2023-01-10T09:16:55.667Z,7.04
2023-01-10T09:19:41.199Z,7.21
2023-01-10T09:22:27.338Z,7.33
2023-01-10T09:25:12.725Z,7.07
2023-01-10T09:27:59.938Z,7.27
2023-01-10T09:30:46.253Z,7.45
2023-01-10T09:33:45.259Z,7.29
2023-01-10T09:36:33.240Z,7.04
2023-01-10T09:39:18.925Z,7.30
2023-01-10T09:42:29.125Z,7.12
2023-01-10T09:45:55.771Z,7.37
2023-01-10T09:48:58.257Z,7.26
2023-01-10T09:51:50.939Z,7.06
2023-01-10T09:54:42.290Z,7.38
2023-01-10T09:57:29.960Z,7.34
2023-01-10T10:00:21.428Z,7.40
2023-01-10T10:03:51.147Z,7.45
2023-01-10T10:06:36.930Z,7.56
2023-01-10T10:09:29.953Z,7.72
2023-01-10T10:12:16.286Z,7.43
2023-01-10T10:15:24.220Z,7.34
2023-01-10T10:18:24.474Z,7.38
2023-01-10T10:21:51.475Z,7.57
2023-01-10T10:25:03.048Z,7.58
2023-01-10T10:28:16.836Z,7.49
2023-01-10T10:31:53.463Z,7.18
2023-01-10T10:34:48.053Z,7.34
2023-01-10T10:37:45.407Z,7.01
2023-01-10T10:40:37.617Z,7.12
2023-01-10T10:43:31.183Z,7.24
2023-01-10T10:46:20.459Z,7.43
2023-01-10T10:49:22.227Z,7.38
2023-01-10T10:52:34.487Z,7.20
2023-01-10T10:55:33.209Z,7.13
2023-01-10T10:58:19.253Z,7.10
2023-01-10T11:01:04.986Z,7.05
2023-01-10T11:04:12.102Z,7.13
2023-01-10T11:06:57.517Z,7.40
2023-01-10T11:09:51.567Z,7.12
2023-01-10T11:12:42.128Z,7.43
2023-01-10T11:15:48.818Z,7.19
2023-01-10T11:18:35.059Z,7.25
2023-01-10T11:21:22.492Z,6.99
2023-01-10T11:24:30.814Z,6.84
2023-01-10T11:27:43.695Z,7.13
2023-01-10T11:30:33.062Z,6.99
2023-01-10T11:33:28.370Z,7.26
2023-01-10T11:36:15.544Z,7.48
2023-01-10T11:39:04.231Z,7.36
2023-01-10T11:41:52.495Z,7.20
2023-01-10T11:44:38.193Z,7.22
2023-01-10T11:47:25.174Z,7.52
2023-01-10T11:50:12.212Z,7.69
2023-01-10T11:52:58.352Z,7.85
2023-01-10T11:55:48.317Z,7.51
2023-01-10T11:58:36.667Z,7.78
2023-01-10T12:01:48.340Z,7.86
2023-01-10T12:04:43.285Z,7.48
2023-01-10T12:07:28.970Z,7.66
2023-01-10T12:10:22.643Z,7.71
2023-01-10T12:13:16.985Z,7.49
2023-01-10T12:16:22.544Z,7.69
2023-01-10T12:19:13.352Z,7.71
2023-01-10T12:22:04.173Z,7.63
2023-01-10T12:24:52.346Z,7.70
2023-01-10T12:27:38.042Z,7.60
2023-01-10T12:30:39.212Z,7.56
2023-01-10T12:33:35.914Z,7.74
2023-01-10T12:36:46.619Z,7.80
2023-01-10T12:39:37.544Z,7.98
2023-01-10T12:43:01.849Z,8.04
2023-01-10T12:46:33.631Z,8.05
2023-01-10T12:49:31.850Z,8.02
2023-01-10T12:52:43.026Z,8.08
2023-01-10T12:55:36.906Z,8.16
2023-01-10T12:58:54.148Z,8.26
2023-01-10T13:01:43.038Z,8.31
2023-01-10T13:04:34.510Z,8.24
2023-01-10T13:07:21.618Z,8.19
2023-01-10T13:10:09.605Z,7.97
2023-01-10T13:13:13.301Z,7.86
2023-01-10T13:16:29.361Z,7.73
2023-01-10T13:19:17.644Z,7.81
2023-01-10T13:22:23.328Z,7.87
2023-01-10T13:25:23.325Z,7.89
2023-01-10T13:28:24.138Z,7.94
2023-01-10T13:31:33.708Z,8.01
2023-01-10T13:34:20.272Z,8.02
2023-01-10T13:37:17.228Z,8.27
2023-01-10T13:40:04.514Z,7.95
2023-01-10T13:43:33.483Z,7.90
2023-01-10T13:46:20.352Z,7.86
2023-01-10T13:49:14.739Z,7.98
2023-01-10T13:52:31.094Z,8.03
2023-01-10T13:55:28.857Z,7.93
2023-01-10T13:58:14.610Z,8.13
2023-01-10T14:01:20.621Z,8.21
2023-01-10T14:04:07.939Z,8.20
2023-01-10T14:07:01.072Z,8.16
2023-01-10T14:09:49.765Z,8.15
2023-01-10T14:13:00.049Z,8.05
2023-01-10T14:15:47.710Z,8.04
2023-01-10T14:18:39.187Z,8.16
2023-01-10T14:21:28.390Z,8.25
2023-01-10T14:24:43.841Z,7.76
2023-01-10T14:27:46.688Z,7.91
2023-01-10T14:30:39.422Z,8.01
2023-01-10T14:33:25.214Z,8.05
2023-01-10T14:36:19.983Z,8.12
2023-01-10T14:39:07.847Z,7.82
2023-01-10T14:42:02.827Z,8.01
2023-01-10T14:45:16.446Z,7.97
2023-01-10T14:48:30.825Z,8.21
2023-01-10T14:51:28.998Z,8.25
2023-01-10T14:54:15.385Z,8.25
2023-01-10T14:57:01.019Z,8.49
2023-01-10T14:59:51.519Z,8.51
2023-01-10T15:02:40.056Z,8.42
2023-01-10T15:05:28.604Z,8.37
2023-01-10T15:08:29.015Z,8.08
2023-01-10T15:11:15.368Z,7.94
2023-01-10T15:14:08.247Z,8.11
2023-01-10T15:17:02.120Z,7.81
2023-01-10T15:19:52.499Z,8.07
2023-01-10T15:22:37.923Z,7.72
2023-01-10T15:25:31.630Z,7.95
2023-01-10T15:28:21.812Z,7.91
2023-01-10T15:31:11.318Z,7.79
2023-01-10T15:33:58.090Z,7.63
2023-01-10T15:36:55.737Z,7.70
2023-01-10T15:39:41.482Z,7.66
2023-01-10T15:42:28.397Z,7.76
2023-01-10T15:45:37.578Z,7.75
2023-01-10T15:48:40.781Z,7.73
2023-01-10T15:51:34.423Z,7.39
2023-01-10T15:54:19.873Z,7.33
2023-01-10T15:57:29.949Z,7.55
2023-01-10T16:00:19.013Z,7.72
2023-01-10T16:03:24.261Z,7.71
2023-01-10T16:06:36.058Z,7.55
2023-01-10T16:09:23.219Z,7.57
2023-01-10T16:12:52.084Z,7.52
2023-01-10T16:15:44.300Z,7.44
2023-01-10T16:18:29.640Z,7.41
2023-01-10T16:21:16.334Z,7.50
2023-01-10T16:24:02.850Z,7.57
2023-01-10T16:26:50.149Z,7.62
2023-01-10T16:29:35.682Z,7.70
2023-01-10T16:32:22.256Z,7.70
2023-01-10T16:35:08.316Z,7.82
2023-01-10T16:37:58.181Z,7.86
2023-01-10T16:41:33.066Z,7.66
2023-01-10T16:44:19.394Z,7.92
2023-01-10T16:47:06.967Z,8.09
2023-01-10T16:49:52.995Z,8.23
2023-01-10T16:52:38.474Z,8.16
2023-01-10T16:55:41.929Z,8.17
2023-01-10T16:58:27.283Z,8.32
2023-01-10T17:01:20.268Z,8.27
2023-01-10T17:04:08.208Z,8.14
2023-01-10T17:06:54.195Z,8.01
2023-01-10T17:09:39.788Z,7.81
2023-01-10T17:12:37.723Z,7.88
2023-01-10T17:15:23.572Z,7.74
2023-01-10T17:18:10.978Z,7.62
2023-01-10T17:20:58.072Z,7.71
2023-01-10T17:23:44.615Z,7.73
2023-01-10T17:26:30.326Z,7.67
2023-01-10T17:29:16.004Z,7.84
2023-01-10T17:32:02.006Z,7.48
2023-01-10T17:34:48.004Z,7.58
2023-01-10T17:37:33.787Z,7.32
2023-01-10T17:40:19.589Z,7.59
2023-01-10T17:43:05.630Z,7.45
2023-01-10T17:45:51.703Z,7.69
2023-01-10T17:48:37.637Z,7.54
2023-01-10T17:51:24.722Z,7.64
2023-01-10T17:54:10.584Z,7.51
2023-01-10T17:56:56.088Z,7.63
2023-01-10T17:59:41.515Z,7.69
2023-01-10T18:02:27.311Z,7.75
2023-01-10T18:05:13.122Z,7.79
2023-01-10T18:08:01.277Z,7.80
2023-01-10T18:10:48.359Z,7.70
2023-01-10T18:13:33.922Z,7.65
2023-01-10T18:16:19.475Z,7.47
2023-01-10T18:19:05.364Z,7.35
2023-01-10T18:21:50.911Z,7.24
2023-01-10T18:24:36.260Z,7.42
2023-01-10T18:27:26.091Z,7.54
2023-01-10T18:30:11.930Z,7.63
2023-01-10T18:32:57.819Z,7.61
2023-01-10T18:35:44.262Z,7.53
2023-01-10T18:38:36.740Z,7.78
2023-01-10T18:41:22.562Z,7.57
2023-01-10T18:44:08.415Z,7.48
2023-01-10T18:46:53.890Z,7.47
2023-01-10T18:49:39.205Z,7.52
2023-01-10T18:52:25.144Z,7.39
2023-01-10T18:55:10.820Z,7.54
2023-01-10T18:57:56.821Z,7.55
2023-01-10T19:00:43.129Z,7.50
2023-01-10T19:03:29.070Z,7.42
2023-01-10T19:08:06.057Z,7.29
2023-01-10T19:11:12.487Z,7.26
2023-01-10T19:13:58.785Z,7.43
2023-01-10T19:16:44.413Z,7.73
2023-01-10T19:19:30.000Z,7.65
2023-01-10T19:22:15.459Z,7.68
2023-01-10T19:25:00.731Z,7.35
2023-01-10T19:27:46.185Z,7.38
2023-01-10T19:30:31.525Z,7.49
2023-01-10T19:33:17.122Z,7.27
2023-01-10T19:36:07.695Z,7.56
2023-01-10T19:38:58.931Z,7.53
2023-01-10T19:41:44.557Z,7.65
2023-01-10T19:44:30.376Z,7.81
2023-01-10T19:47:16.558Z,7.69
2023-01-10T19:50:02.193Z,7.57
2023-01-10T19:52:47.735Z,7.70
2023-01-10T19:55:36.207Z,7.56
2023-01-10T19:58:21.905Z,7.50
2023-01-10T20:01:21.343Z,7.42
2023-01-10T20:04:07.263Z,7.51
2023-01-10T20:06:52.979Z,7.49
2023-01-10T20:09:38.953Z,7.59
2023-01-10T20:12:25.530Z,7.41
2023-01-10T20:15:11.635Z,7.27
2023-01-10T20:17:57.421Z,7.42
2023-01-10T20:20:44.386Z,7.22
2023-01-10T20:23:31.412Z,7.22
2023-01-10T20:26:27.942Z,7.15
2023-01-10T20:29:14.720Z,7.19
2023-01-10T20:32:02.525Z,7.21
2023-01-10T20:34:49.833Z,7.04
2023-01-10T20:37:36.019Z,7.21
2023-01-10T20:40:25.003Z,7.09
2023-01-10T20:43:10.476Z,7.05
2023-01-10T20:45:56.102Z,7.06
2023-01-10T20:48:42.732Z,6.74
2023-01-10T20:51:32.816Z,6.68
2023-01-10T20:54:18.270Z,7.01
2023-01-10T20:57:04.222Z,7.08
2023-01-10T20:59:50.080Z,7.24
2023-01-10T21:02:35.835Z,7.13
2023-01-10T21:05:21.775Z,7.03
2023-01-10T21:08:07.350Z,7.05
2023-01-10T21:10:53.540Z,7.17
2023-01-10T21:13:39.682Z,7.15
2023-01-10T21:16:25.743Z,7.25
2023-01-10T21:19:13.613Z,7.20
2023-01-10T21:22:04.667Z,7.25
2023-01-10T21:24:52.299Z,7.09
2023-01-10T21:27:37.769Z,6.94
2023-01-10T21:30:23.755Z,6.83
2023-01-10T21:33:11.612Z,6.96
2023-01-10T21:35:58.681Z,7.11
2023-01-10T21:38:44.988Z,6.84
2023-01-10T21:41:48.975Z,6.77
2023-01-10T21:44:34.449Z,6.93
2023-01-10T21:47:19.973Z,6.93
2023-01-10T21:50:08.002Z,7.06
2023-01-10T21:52:53.651Z,7.13
2023-01-10T21:55:39.673Z,7.09
2023-01-10T21:58:25.630Z,7.16
2023-01-10T22:01:11.517Z,7.05
2023-01-10T22:03:57.481Z,7.08
2023-01-10T22:06:43.293Z,7.15
2023-01-10T22:09:29.377Z,6.89
2023-01-10T22:12:15.395Z,7.20
2023-01-10T22:15:01.280Z,6.90
2023-01-10T22:17:48.189Z,6.89
2023-01-10T22:20:33.581Z,7.03
2023-01-10T22:23:18.956Z,6.91
2023-01-10T22:26:12.307Z,7.07
2023-01-10T22:28:57.696Z,7.09
2023-01-10T22:31:43.636Z,6.99
2023-01-10T22:34:29.376Z,7.00
2023-01-10T22:37:16.386Z,6.99
2023-01-10T22:40:01.930Z,7.08
2023-01-10T22:42:52.494Z,7.11
2023-01-10T22:45:43.174Z,6.96
2023-01-10T22:48:28.832Z,6.64
2023-01-10T22:51:16.339Z,6.99
2023-01-10T22:54:04.101Z,6.74
2023-01-10T22:56:49.779Z,6.66
2023-01-10T23:02:40.343Z,6.98
2023-01-10T23:05:26.866Z,7.13
2023-01-10T23:08:12.457Z,7.07
2023-01-10T23:10:58.178Z,7.11
2023-01-10T23:13:45.673Z,7.25
2023-01-10T23:16:32.646Z,7.02
2023-01-10T23:19:18.410Z,7.08
2023-01-10T23:22:04.061Z,7.07
2023-01-10T23:24:49.363Z,7.00
2023-01-10T23:27:35.299Z,7.05
2023-01-10T23:30:22.517Z,7.23
2023-01-10T23:33:08.184Z,7.20
2023-01-10T23:35:53.675Z,6.97
2023-01-10T23:38:40.847Z,6.90
2023-01-10T23:41:26.663Z,6.73
2023-01-10T23:44:12.212Z,6.76
2023-01-10T23:46:58.031Z,7.05
2023-01-10T23:49:43.643Z,7.07
2023-01-10T23:52:29.386Z,6.97
2023-01-10T23:55:15.467Z,6.86
2023-01-10T23:58:01.018Z,6.48
